^^

Meteo Aereoporti Centro-Italia

 

 
LIRZ - Perugia S.Egidio (208 m.)
Dati ricevuti: 22/07/2019 04:50
Sereno
Sereno
 Vento da N
Vento: N 6 km/h
TEMPERATURA: 19°C
P.to di Rugiada: 16°C
Umidità: 83%
Pressione: 1022 hPa
Nuvole: Sereno
Visibilità: 10 km
2019/07/22 02:50 LIRZ 220250Z AUTO 35003KT 9999 NCD 19/16 Q1022
 
LIPY - Ancona Falconara (12 m.)
Dati ricevuti: 22/07/2019 04:50
Sereno
Sereno
 Vento da direzione variabile
Vento: direzione variabile 2 km/h
TEMPERATURA: 20°C
P.to di Rugiada: 17°C
Umidità: 83%
Pressione: 1020 hPa
Condizioni generali: Sereno
Visibilità: oltre 10 km
2019/07/22 02:50 LIPY 220250Z VRB01KT CAVOK 20/17 Q1020
 
LIPR - Rimini Miramare (12 m.)
Dati ricevuti: 22/07/2019 05:20
Sereno
Sereno
 Vento da S
Vento: S 4 km/h
TEMPERATURA: 20°C
P.to di Rugiada: 17°C
Umidità: 83%
Pressione: 1020 hPa
Nuvole: Sereno
Visibilità: 10 km
2019/07/22 03:20 LIPR 220320Z AUTO 19002KT 9999 NCD 20/17 Q1020
 
LIRF - Roma Fiumicino (2 m.)
Dati ricevuti: 22/07/2019 05:20
Sereno
Sereno
 Vento da NNE
Vento: NNE 7 km/h
TEMPERATURA: 18°C
P.to di Rugiada: 15°C
Umidità: 83%
Pressione: 1020 hPa
Condizioni generali: Sereno
Visibilità: oltre 10 km
2019/07/22 03:20 LIRF 220320Z 02004KT CAVOK 18/15 Q1020 NOSIG
 
LIRA - Roma Ciampino (129 m.)
Dati ricevuti: 22/07/2019 04:50
Sereno
Sereno
 Vento da direzione variabile
Vento: direzione variabile 2 km/h
TEMPERATURA: 21°C
P.to di Rugiada: 9°C
Umidità: 46%
Pressione: 1020 hPa
Condizioni generali: Sereno
Visibilità: oltre 10 km
2019/07/22 02:50 LIRA 220250Z VRB01KT CAVOK 21/09 Q1020
 
LIRU - Roma Urbe (17 m.)
Dati ricevuti: 21/07/2019 19:50
Dati non aggiornati
Sereno
Sereno
 Vento da WSW
Vento: WSW 9 km/h
TEMPERATURA: 30°C
Indice di Calore: 29°C
P.to di Rugiada: 15°C
Umidità: 40%
Pressione: 1019 hPa
Condizioni generali: Sereno
Visibilità: oltre 10 km
2019/07/21 17:50 LIRU 211750Z 25005KT 220V290 CAVOK 30/15 Q1019
 
LIVF - Frontone (570 m.)
Dati ricevuti: 17/07/2019 16:55
Dati non aggiornati
Qualche nuvola
Qualche nuvola
 Vento da ESE
Vento: ESE 67 km/h
TEMPERATURA: 25°C
P.to di Rugiada: 5°C
Umidità: 28%
Pressione: 1014 hPa
Nuvole: Qualche nuvola
Visibilità: 10 km
Dettagli Nuvole: Qualche nuvola 1067 m
2019/07/17 14:55 LIVF 171455Z 11036KT 9999 FEW035 25/05 Q1014
 
LIRQ - Firenze Peretola (40 m.)
Dati ricevuti: 22/07/2019 05:20
Sereno
Sereno
 Vento da SSW
Vento: SSW 4 km/h
TEMPERATURA: 20°C
P.to di Rugiada: 18°C
Umidità: 88%
Pressione: 1021 hPa
Condizioni generali: Sereno
Visibilità: oltre 10 km
2019/07/22 03:20 LIRQ 220320Z 20002KT CAVOK 20/18 Q1021
 
LIBP - Pescara (10 m.)
Dati ricevuti: 22/07/2019 04:50
Sereno
Sereno
 Vento da SSW
Vento: SSW 9 km/h
TEMPERATURA: 20°C
P.to di Rugiada: 19°C
Umidità: 94%
Pressione: 1020 hPa
Nuvole: Sereno
Visibilità: 10 km
2019/07/22 02:50 LIBP 220250Z AUTO 21005KT 9999 NCD 20/19 Q1020
 
LIRV - Viterbo (300 m.)
Dati ricevuti: 21/07/2019 20:55
Dati non aggiornati
Sereno
Sereno
 Vento da direzione variabile
Vento: direzione variabile 0 km/h
TEMPERATURA: 26°C
P.to di Rugiada: 15°C
Umidità: 51%
Pressione: 1020 hPa
Condizioni generali: Sereno
Visibilità: oltre 10 km
2019/07/21 18:55 LIRV 211855Z /////KT CAVOK 26/15 Q1020
 
LIQN - Rieti (389 m.)
Dati ricevuti: 21/07/2019 19:50
Dati non aggiornati
Sereno
Sereno
 Vento da W
Vento: W 7 km/h
TEMPERATURA: 30°C
P.to di Rugiada: 11°C
Umidità: 31%
Pressione: 1020 hPa
Condizioni generali: Sereno
Visibilità: oltre 10 km
2019/07/21 17:50 LIQN 211750Z 28004KT CAVOK 30/11 Q1020
 
LIRG - Guidonia -RM- (88 m.)
Dati ricevuti: 19/07/2019 19:55
Dati non aggiornati
Qualche nuvola
Qualche nuvola
 Vento da ESE
Vento: ESE 6 km/h
TEMPERATURA: 28°C
Indice di Calore: 28°C
P.to di Rugiada: 15°C
Umidità: 45%
Pressione: 1016 hPa
Nuvole: Qualche nuvola
Visibilità: 10 km
Dettagli Nuvole: Qualche nuvola 914 m
2019/07/19 17:55 LIRG 191755Z 12003KT 9999 FEW030CB 28/15 Q1016
 
LIRK - Terminillo -RI-(1874 m.)
Dati ricevuti: 22/07/2019 04:55

 Vento da direzione variabile
Vento: direzione variabile 9 km/h
TEMPERATURA: 17°C
P.to di Rugiada: 3°C
Umidità: 39%
Pressione: 1032 hPa
2019/07/22 02:55 LIRK 220255Z AUTO VRB05KT //// 17/03 Q1032
 
LIPK - Forlì (27 m.)
Dati ricevuti: 19/07/2019 17:50
Dati non aggiornati
Sereno
Sereno
 Vento da E
Vento: E 15 km/h
TEMPERATURA: 29°C
Indice di Calore: 29°C
P.to di Rugiada: 18°C
Umidità: 51%
Pressione: 1014 hPa
Condizioni generali: Sereno
Visibilità: oltre 10 km
2019/07/19 15:50 LIPK 191550Z 09008KT CAVOK 29/18 Q1014
 
LIRS - Grosseto (5 m.)
Dati ricevuti: 22/07/2019 04:55
Sereno
Sereno
 Vento da E
Vento: E 2 km/h
TEMPERATURA: 19°C
P.to di Rugiada: 17°C
Umidità: 88%
Pressione: 1020 hPa
Condizioni generali: Sereno
Visibilità: oltre 10 km
2019/07/22 02:55 LIRS 220255Z 08001KT CAVOK 19/17 Q1020
 
LIRP - Pisa S.Giusto (2 m.)
Dati ricevuti: 22/07/2019 05:15
Sereno
Sereno
 Vento da E
Vento: E 7 km/h
TEMPERATURA: 19°C
P.to di Rugiada: 19°C
Umidità: 100%
Pressione: 1022 hPa
Condizioni generali: Sereno
Visibilità: oltre 10 km
2019/07/22 03:15 LIRP 220315Z 10004KT CAVOK 19/19 Q1022 NOSIG